createdAt,value
2023-08-15T00:01:51.684Z,47.27
2023-08-15T00:04:18.254Z,46.99
2023-08-15T00:06:44.852Z,47.08
2023-08-15T00:09:11.570Z,47.19
2023-08-15T00:11:38.157Z,47.46
2023-08-15T00:14:04.786Z,47.28
2023-08-15T00:16:31.445Z,47.24
2023-08-15T00:18:58.029Z,47.33
2023-08-15T00:21:25.403Z,47.59
2023-08-15T00:23:52.238Z,47.52
2023-08-15T00:26:18.840Z,47.49
2023-08-15T00:28:45.491Z,47.13
2023-08-15T00:31:12.160Z,47.81
2023-08-15T00:33:39.494Z,47.46
2023-08-15T00:36:06.453Z,47.45
2023-08-15T00:38:33.029Z,47.43
2023-08-15T00:40:59.615Z,47.71
2023-08-15T00:43:26.215Z,47.47
2023-08-15T00:45:53.557Z,47.50
2023-08-15T00:48:21.368Z,47.62
2023-08-15T00:50:50.821Z,47.30
2023-08-15T00:53:19.311Z,47.49
2023-08-15T00:55:46.609Z,47.16
2023-08-15T00:58:13.381Z,47.36
2023-08-15T01:00:40.021Z,47.23
2023-08-15T01:03:06.669Z,47.34
2023-08-15T01:05:33.349Z,47.23
2023-08-15T01:08:00.241Z,47.48
2023-08-15T01:10:27.536Z,47.47
2023-08-15T01:13:23.617Z,47.51
2023-08-15T01:15:52.213Z,47.52
2023-08-15T01:18:29.996Z,47.55
2023-08-15T01:20:57.816Z,47.66
2023-08-15T01:23:54.051Z,47.37
2023-08-15T01:26:20.652Z,47.62
2023-08-15T01:28:47.223Z,47.63
2023-08-15T01:31:30.732Z,47.71
2023-08-15T01:34:02.252Z,47.89
2023-08-15T01:36:34.689Z,47.48
2023-08-15T01:39:04.214Z,47.38
2023-08-15T01:41:34.329Z,47.42
2023-08-15T01:44:01.892Z,47.22
2023-08-15T01:46:28.545Z,47.34
2023-08-15T01:48:55.243Z,47.13
2023-08-15T01:51:21.826Z,47.22
2023-08-15T01:53:48.543Z,47.58
2023-08-15T01:56:15.149Z,47.80
2023-08-15T01:58:41.803Z,47.44
2023-08-15T02:01:08.458Z,47.05
2023-08-15T02:03:35.065Z,47.50
2023-08-15T02:06:01.679Z,47.53
2023-08-15T02:08:28.323Z,47.25
2023-08-15T02:10:55.058Z,47.53
2023-08-15T02:13:21.717Z,47.54
2023-08-15T02:15:48.443Z,47.44
2023-08-15T02:18:15.038Z,47.29
2023-08-15T02:20:41.614Z,47.59
2023-08-15T02:23:08.303Z,47.63
2023-08-15T02:25:34.887Z,47.29
2023-08-15T02:28:01.521Z,47.58
2023-08-15T02:30:28.172Z,47.65
2023-08-15T02:32:54.981Z,47.72
2023-08-15T02:35:21.631Z,47.66
2023-08-15T02:37:48.287Z,47.89
2023-08-15T02:40:14.960Z,47.59
2023-08-15T02:42:41.569Z,48.05
2023-08-15T02:45:08.797Z,47.71
2023-08-15T02:47:35.506Z,47.91
2023-08-15T02:50:02.184Z,47.60
2023-08-15T02:52:28.768Z,47.26
2023-08-15T02:54:55.363Z,47.39
2023-08-15T02:57:22.320Z,47.24
2023-08-15T02:59:49.090Z,47.39
2023-08-15T03:02:18.628Z,47.54
2023-08-15T03:04:45.260Z,47.42
2023-08-15T03:07:11.839Z,47.65
2023-08-15T03:09:38.493Z,47.50
2023-08-15T03:12:05.285Z,47.93
2023-08-15T03:14:31.916Z,47.85
2023-08-15T03:16:58.588Z,47.58
2023-08-15T03:19:25.305Z,47.84
2023-08-15T03:21:53.602Z,47.60
2023-08-15T03:24:20.207Z,47.90
2023-08-15T03:26:46.881Z,47.38
2023-08-15T03:29:13.574Z,47.59
2023-08-15T03:31:40.204Z,47.91
2023-08-15T03:34:07.657Z,47.75
2023-08-15T03:36:34.294Z,47.51
2023-08-15T03:39:00.979Z,47.71
2023-08-15T03:41:27.553Z,47.58
2023-08-15T03:43:54.218Z,47.85
2023-08-15T03:46:22.481Z,47.96
2023-08-15T03:48:49.167Z,47.71
2023-08-15T03:51:27.411Z,47.75
2023-08-15T03:54:02.320Z,48.01
2023-08-15T03:56:28.938Z,47.60
2023-08-15T03:58:55.605Z,47.83
2023-08-15T04:01:22.194Z,47.76
2023-08-15T04:03:50.969Z,47.42
2023-08-15T04:06:17.609Z,47.67
2023-08-15T04:08:44.390Z,48.02
2023-08-15T04:11:10.979Z,48.05
2023-08-15T04:13:37.590Z,47.86
2023-08-15T04:16:04.214Z,48.11
2023-08-15T04:18:31.102Z,47.91
2023-08-15T04:20:57.709Z,48.07
2023-08-15T04:23:25.068Z,48.22
2023-08-15T04:25:51.706Z,48.27
2023-08-15T04:28:18.755Z,48.22
2023-08-15T04:30:46.077Z,48.03
2023-08-15T04:33:12.746Z,48.00
2023-08-15T04:35:40.700Z,48.25
2023-08-15T04:38:07.401Z,47.97
2023-08-15T04:40:44.978Z,48.26
2023-08-15T04:43:12.159Z,47.73
2023-08-15T04:45:42.230Z,47.92
2023-08-15T04:48:10.096Z,47.90
2023-08-15T04:50:37.181Z,47.98
2023-08-15T04:53:03.998Z,48.07
2023-08-15T04:55:30.617Z,47.94
2023-08-15T04:57:57.240Z,48.55
2023-08-15T05:00:23.826Z,48.28
2023-08-15T05:02:50.610Z,47.93
2023-08-15T05:05:17.354Z,48.43
2023-08-15T05:07:44.064Z,47.86
2023-08-15T05:10:10.839Z,48.26
2023-08-15T05:12:37.431Z,48.03
2023-08-15T05:15:04.425Z,48.25
2023-08-15T05:17:32.198Z,48.12
2023-08-15T05:19:59.120Z,48.17
2023-08-15T05:22:26.011Z,48.06
2023-08-15T05:24:52.708Z,48.31
2023-08-15T05:27:19.604Z,48.13
2023-08-15T05:29:46.461Z,48.07
2023-08-15T05:32:13.683Z,48.38
2023-08-15T05:34:40.327Z,48.35
2023-08-15T05:37:06.897Z,48.06
2023-08-15T05:39:33.529Z,48.34
2023-08-15T05:42:00.141Z,48.23
2023-08-15T05:44:27.705Z,48.29
2023-08-15T05:46:54.443Z,47.96
2023-08-15T05:49:21.049Z,47.75
2023-08-15T05:51:47.635Z,47.85
2023-08-15T05:54:14.224Z,48.12
2023-08-15T05:56:41.548Z,47.88
2023-08-15T05:59:08.243Z,47.90
2023-08-15T06:01:34.836Z,48.52
2023-08-15T06:04:02.242Z,48.17
2023-08-15T06:06:29.024Z,48.15
2023-08-15T06:08:56.619Z,48.17
2023-08-15T06:11:23.278Z,48.24
2023-08-15T06:13:51.141Z,48.31
2023-08-15T06:16:19.787Z,48.26
2023-08-15T06:18:46.422Z,47.96
2023-08-15T06:21:13.135Z,48.36
2023-08-15T06:23:39.759Z,48.25
2023-08-15T06:26:06.364Z,48.61
2023-08-15T06:28:32.982Z,48.41
2023-08-15T06:30:59.631Z,48.38
2023-08-15T06:33:26.300Z,48.36
2023-08-15T06:35:53.746Z,48.77
2023-08-15T06:38:20.355Z,48.56
2023-08-15T06:40:46.960Z,48.32
2023-08-15T06:43:13.564Z,48.23
2023-08-15T06:45:40.159Z,48.58
2023-08-15T06:48:07.186Z,48.60
2023-08-15T06:50:34.145Z,48.22
2023-08-15T06:53:00.998Z,48.18
2023-08-15T06:55:27.608Z,48.31
2023-08-15T06:57:54.809Z,47.75
2023-08-15T07:00:21.606Z,48.19
2023-08-15T07:02:48.356Z,48.23
2023-08-15T07:05:15.204Z,48.14
2023-08-15T07:07:41.930Z,48.49
2023-08-15T07:10:09.028Z,48.89
2023-08-15T07:12:38.556Z,48.69
2023-08-15T07:15:05.691Z,48.55
2023-08-15T07:17:32.687Z,48.66
2023-08-15T07:19:59.483Z,48.75
2023-08-15T07:22:26.145Z,48.84
2023-08-15T07:24:52.791Z,48.78
2023-08-15T07:27:19.406Z,49.27
2023-08-15T07:29:46.069Z,49.01
2023-08-15T07:32:13.826Z,49.25
2023-08-15T07:34:40.817Z,49.09
2023-08-15T07:37:07.522Z,48.91
2023-08-15T07:39:34.175Z,49.11
2023-08-15T07:42:01.114Z,49.02
2023-08-15T07:44:28.870Z,48.73
2023-08-15T07:46:55.556Z,48.78
2023-08-15T07:49:22.187Z,48.92
2023-08-15T07:51:49.002Z,48.61
2023-08-15T07:54:15.664Z,48.53
2023-08-15T07:56:42.359Z,48.56
2023-08-15T07:59:08.970Z,48.40
2023-08-15T08:01:35.690Z,48.33
2023-08-15T08:04:02.638Z,48.29
2023-08-15T08:08:59.303Z,47.88
2023-08-15T08:11:25.886Z,48.19
2023-08-15T08:13:52.465Z,48.56
2023-08-15T08:16:19.414Z,48.35
2023-08-15T08:18:46.795Z,47.95
2023-08-15T08:21:13.461Z,47.88
2023-08-15T08:23:40.126Z,47.70
2023-08-15T08:26:06.731Z,47.84
2023-08-15T08:28:33.327Z,47.95
2023-08-15T08:30:59.994Z,47.69
2023-08-15T08:33:26.800Z,47.35
2023-08-15T08:35:53.392Z,47.31
2023-08-15T08:38:20.901Z,47.50
2023-08-15T08:40:48.689Z,47.42
2023-08-15T08:43:16.946Z,47.65
2023-08-15T08:45:48.679Z,47.33
2023-08-15T08:48:16.592Z,47.23
2023-08-15T08:50:43.298Z,46.92
2023-08-15T08:53:09.905Z,46.97
2023-08-15T08:55:36.567Z,46.97
2023-08-15T08:58:03.961Z,46.94
2023-08-15T09:00:35.124Z,46.95
2023-08-15T09:03:01.947Z,46.90
2023-08-15T09:05:28.968Z,47.09
2023-08-15T09:07:55.817Z,46.81
2023-08-15T09:10:23.196Z,46.76
2023-08-15T09:12:50.909Z,46.62
2023-08-15T09:15:17.522Z,47.17
2023-08-15T09:17:44.249Z,46.97
2023-08-15T09:20:15.161Z,46.83
2023-08-15T09:22:46.409Z,46.78
2023-08-15T09:25:16.216Z,46.72
2023-08-15T09:27:43.531Z,46.87
2023-08-15T09:30:12.574Z,46.64
2023-08-15T09:32:41.328Z,47.10
2023-08-15T09:35:13.291Z,46.63
2023-08-15T09:37:44.850Z,47.11
2023-08-15T09:40:26.540Z,47.11
2023-08-15T09:42:53.668Z,46.67
2023-08-15T09:45:20.436Z,46.82
2023-08-15T09:47:47.640Z,46.76
2023-08-15T09:50:15.172Z,46.95
2023-08-15T09:52:44.184Z,46.92
2023-08-15T09:55:15.622Z,46.99
2023-08-15T09:57:46.865Z,46.91
2023-08-15T10:00:14.587Z,46.55
2023-08-15T10:02:50.232Z,46.78
2023-08-15T10:05:22.563Z,46.80
2023-08-15T10:07:51.137Z,46.73
2023-08-15T10:10:18.390Z,46.79
2023-08-15T10:12:46.749Z,46.78
2023-08-15T10:15:14.157Z,46.47
2023-08-15T10:17:41.524Z,46.49
2023-08-15T10:20:11.956Z,46.48
2023-08-15T10:22:41.182Z,46.88
2023-08-15T10:25:29.380Z,46.61
2023-08-15T10:27:57.022Z,46.54
2023-08-15T10:30:51.515Z,46.51
2023-08-15T10:33:21.129Z,46.64
2023-08-15T10:35:56.795Z,46.65
2023-08-15T10:38:27.330Z,46.49
2023-08-15T10:40:56.455Z,46.53
2023-08-15T10:43:26.907Z,46.10
2023-08-15T10:45:57.905Z,45.93
2023-08-15T10:48:55.854Z,46.04
2023-08-15T10:51:34.239Z,45.65
2023-08-15T10:54:02.125Z,45.54
2023-08-15T10:56:31.656Z,45.37
2023-08-15T10:58:59.371Z,45.30
2023-08-15T11:01:28.021Z,45.23
2023-08-15T11:03:56.423Z,45.31
2023-08-15T11:06:23.249Z,45.34
2023-08-15T11:08:59.923Z,45.49
2023-08-15T11:11:27.567Z,45.25
2023-08-15T11:13:55.081Z,45.67
2023-08-15T11:16:23.430Z,45.54
2023-08-15T11:18:50.637Z,45.19
2023-08-15T11:21:19.052Z,45.38
2023-08-15T11:23:47.820Z,45.17
2023-08-15T11:26:19.652Z,44.73
2023-08-15T11:28:46.355Z,44.68
2023-08-15T11:33:44.299Z,44.70
2023-08-15T11:36:11.360Z,44.49
2023-08-15T11:38:39.406Z,45.03
2023-08-15T11:41:06.363Z,45.12
2023-08-15T11:43:35.710Z,45.06
2023-08-15T11:46:03.581Z,45.13
2023-08-15T11:48:31.844Z,45.14
2023-08-15T11:50:58.922Z,45.06
2023-08-15T11:53:25.768Z,44.48
2023-08-15T11:55:53.301Z,44.70
2023-08-15T11:58:33.074Z,45.00
2023-08-15T12:01:13.018Z,44.48
2023-08-15T12:03:40.193Z,44.57
2023-08-15T12:06:08.964Z,44.66
2023-08-15T12:08:35.642Z,44.83
2023-08-15T12:11:06.929Z,44.69
2023-08-15T12:13:34.392Z,44.56
2023-08-15T12:16:02.158Z,44.58
2023-08-15T12:18:29.848Z,44.63
2023-08-15T12:20:56.467Z,44.32
2023-08-15T12:23:28.785Z,43.83
2023-08-15T12:25:56.240Z,44.22
2023-08-15T12:28:23.206Z,44.64
2023-08-15T12:30:50.009Z,44.51
2023-08-15T12:33:27.607Z,44.50
2023-08-15T12:36:03.379Z,44.16
2023-08-15T12:38:30.310Z,44.00
2023-08-15T12:40:57.155Z,44.07
2023-08-15T12:43:23.780Z,44.26
2023-08-15T12:45:50.548Z,43.86
2023-08-15T12:48:17.251Z,44.06
2023-08-15T12:50:43.881Z,43.97
2023-08-15T12:53:10.562Z,43.76
2023-08-15T12:55:37.297Z,43.68
2023-08-15T12:58:04.314Z,43.80
2023-08-15T13:00:31.251Z,43.99
2023-08-15T13:02:59.101Z,43.74
2023-08-15T13:05:25.950Z,43.98
2023-08-15T13:07:52.785Z,43.97
2023-08-15T13:10:19.366Z,43.80
2023-08-15T13:12:45.996Z,43.81
2023-08-15T13:15:13.748Z,43.93
2023-08-15T13:17:40.392Z,43.66
2023-08-15T13:20:07.817Z,43.95
2023-08-15T13:22:36.338Z,43.67
2023-08-15T13:25:02.970Z,43.55
2023-08-15T13:27:30.732Z,43.82
2023-08-15T13:29:57.682Z,44.23
2023-08-15T13:32:24.594Z,43.64
2023-08-15T13:34:51.409Z,44.08
2023-08-15T13:37:18.041Z,44.23
2023-08-15T13:39:45.002Z,44.36
2023-08-15T13:42:19.978Z,44.23
2023-08-15T13:44:53.694Z,44.02
2023-08-15T13:47:21.164Z,43.86
2023-08-15T13:49:48.054Z,43.98
2023-08-15T13:52:14.675Z,43.94
2023-08-15T13:54:41.270Z,44.21
2023-08-15T13:57:07.947Z,44.13
2023-08-15T13:59:34.536Z,44.00
2023-08-15T14:02:01.207Z,43.99
2023-08-15T14:04:29.229Z,43.77
2023-08-15T14:06:59.878Z,43.91
2023-08-15T14:09:26.509Z,43.96
2023-08-15T14:11:53.130Z,43.78
2023-08-15T14:14:19.726Z,43.95
2023-08-15T14:16:46.536Z,43.84
2023-08-15T14:19:13.684Z,43.77
2023-08-15T14:21:40.283Z,43.84
2023-08-15T14:24:07.089Z,43.68
2023-08-15T14:26:34.062Z,43.72
2023-08-15T14:29:00.706Z,43.78
2023-08-15T14:31:27.750Z,43.98
2023-08-15T14:33:54.357Z,43.98
2023-08-15T14:36:20.974Z,44.03
2023-08-15T14:38:47.877Z,43.79
2023-08-15T14:41:14.495Z,43.97
2023-08-15T14:43:41.089Z,43.77
2023-08-15T14:46:07.688Z,44.19
2023-08-15T14:48:34.321Z,43.86
2023-08-15T14:51:00.904Z,43.66
2023-08-15T14:53:27.599Z,43.78
2023-08-15T14:55:54.203Z,44.30
2023-08-15T14:58:21.296Z,44.12
2023-08-15T15:00:48.055Z,44.37
2023-08-15T15:03:14.829Z,44.40
2023-08-15T15:05:41.483Z,44.70
2023-08-15T15:08:08.646Z,44.51
2023-08-15T15:10:36.297Z,44.63
2023-08-15T15:13:03.536Z,44.57
2023-08-15T15:15:45.847Z,44.60
2023-08-15T15:18:17.402Z,44.70
2023-08-15T15:20:44.074Z,44.33
2023-08-15T15:23:10.756Z,44.46
2023-08-15T15:25:37.364Z,44.29
2023-08-15T15:28:04.149Z,44.30
2023-08-15T15:30:31.100Z,44.21
2023-08-15T15:32:57.960Z,44.35
2023-08-15T15:35:24.620Z,44.22
2023-08-15T15:37:51.195Z,44.06
2023-08-15T15:40:17.828Z,44.42
2023-08-15T15:42:44.445Z,44.40
2023-08-15T15:45:11.173Z,44.24
2023-08-15T15:47:37.802Z,44.58
2023-08-15T15:50:04.532Z,44.06
2023-08-15T15:52:31.346Z,43.98
2023-08-15T15:54:58.040Z,43.98
2023-08-15T15:57:24.674Z,44.42
2023-08-15T15:59:51.272Z,44.58
2023-08-15T16:02:18.091Z,44.46
2023-08-15T16:04:47.660Z,44.16
2023-08-15T16:07:16.654Z,44.30
2023-08-15T16:09:43.354Z,44.37
2023-08-15T16:12:09.958Z,44.50
2023-08-15T16:14:36.558Z,44.33
2023-08-15T16:17:04.592Z,44.20
2023-08-15T16:19:31.214Z,43.71
2023-08-15T16:21:57.825Z,43.88
2023-08-15T16:24:26.977Z,43.61
2023-08-15T16:26:53.653Z,43.72
2023-08-15T16:29:20.276Z,43.72
2023-08-15T16:31:46.945Z,43.88
2023-08-15T16:34:13.541Z,43.66
2023-08-15T16:36:40.171Z,44.18
2023-08-15T16:39:07.592Z,44.06
2023-08-15T16:41:34.234Z,43.81
2023-08-15T16:44:00.881Z,44.09
2023-08-15T16:46:27.567Z,43.86
2023-08-15T16:48:54.216Z,43.72
2023-08-15T16:51:21.106Z,43.93
2023-08-15T16:53:47.809Z,43.47
2023-08-15T16:56:14.404Z,43.90
2023-08-15T16:58:41.037Z,43.98
2023-08-15T17:01:07.642Z,43.90
2023-08-15T17:03:34.332Z,44.38
2023-08-15T17:06:01.046Z,44.46
2023-08-15T17:08:27.949Z,44.30
2023-08-15T17:10:54.546Z,44.27
2023-08-15T17:13:21.168Z,44.53
2023-08-15T17:15:47.827Z,44.35
2023-08-15T17:18:14.532Z,44.32
2023-08-15T17:20:41.132Z,44.16
2023-08-15T17:23:08.550Z,43.93
2023-08-15T17:25:36.270Z,44.25
2023-08-15T17:28:03.001Z,44.24
2023-08-15T17:30:29.614Z,44.18
2023-08-15T17:32:56.266Z,44.44
2023-08-15T17:35:22.895Z,44.72
2023-08-15T17:37:49.495Z,44.53
2023-08-15T17:40:16.146Z,44.72
2023-08-15T17:42:44.169Z,44.81
2023-08-15T17:45:12.891Z,44.60
2023-08-15T17:47:39.567Z,44.67
2023-08-15T17:50:07.135Z,44.68
2023-08-15T17:52:36.535Z,44.66
2023-08-15T17:55:05.147Z,44.34
2023-08-15T17:57:31.982Z,44.66
2023-08-15T17:59:58.630Z,44.80
2023-08-15T18:02:25.428Z,44.81
2023-08-15T18:04:52.385Z,44.73
2023-08-15T18:07:20.161Z,44.68
2023-08-15T18:09:46.746Z,44.72
2023-08-15T18:12:13.370Z,44.79
2023-08-15T18:14:42.092Z,44.96
2023-08-15T18:17:08.677Z,45.13
2023-08-15T18:19:35.308Z,44.81
2023-08-15T18:22:02.143Z,44.68
2023-08-15T18:24:29.586Z,44.88
2023-08-15T18:26:59.433Z,44.86
2023-08-15T18:29:27.416Z,44.88
2023-08-15T18:31:54.109Z,45.19
2023-08-15T18:34:20.731Z,45.03
2023-08-15T18:36:47.324Z,45.06
2023-08-15T18:39:13.908Z,45.08
2023-08-15T18:41:40.482Z,45.24
2023-08-15T18:44:11.215Z,45.26
2023-08-15T18:46:38.274Z,45.09
2023-08-15T18:49:04.895Z,45.07
2023-08-15T18:51:32.820Z,45.32
2023-08-15T18:54:00.003Z,45.32
2023-08-15T18:56:26.609Z,44.71
2023-08-15T18:58:53.190Z,45.12
2023-08-15T19:01:19.946Z,45.30
2023-08-15T19:03:46.682Z,45.32
2023-08-15T19:06:13.365Z,45.46
2023-08-15T19:08:40.006Z,45.21
2023-08-15T19:11:07.186Z,45.28
2023-08-15T19:13:33.776Z,45.08
2023-08-15T19:16:00.406Z,45.36
2023-08-15T19:18:27.676Z,45.46
2023-08-15T19:20:54.354Z,45.55
2023-08-15T19:23:21.096Z,45.34
2023-08-15T19:25:48.135Z,45.40
2023-08-15T19:28:16.444Z,45.36
2023-08-15T19:30:43.850Z,45.52
2023-08-15T19:33:10.884Z,45.42
2023-08-15T19:35:37.645Z,45.49
2023-08-15T19:38:04.348Z,45.65
2023-08-15T19:40:30.957Z,45.65
2023-08-15T19:42:57.573Z,45.52
2023-08-15T19:45:24.204Z,45.64
2023-08-15T19:47:50.854Z,45.75
2023-08-15T19:50:18.247Z,45.73
2023-08-15T19:52:44.845Z,45.66
2023-08-15T19:55:11.798Z,45.78
2023-08-15T19:57:38.935Z,45.75
2023-08-15T20:00:07.906Z,45.68
2023-08-15T20:02:34.558Z,45.63
2023-08-15T20:05:01.254Z,46.08
2023-08-15T20:07:27.929Z,45.74
2023-08-15T20:10:08.346Z,45.72
2023-08-15T20:12:37.246Z,45.81
2023-08-15T20:15:04.412Z,45.68
2023-08-15T20:17:31.091Z,45.74
2023-08-15T20:19:57.793Z,45.97
2023-08-15T20:22:24.822Z,45.66
2023-08-15T20:24:51.743Z,46.04
2023-08-15T20:27:18.412Z,45.58
2023-08-15T20:29:45.194Z,45.51
2023-08-15T20:32:13.403Z,45.66
2023-08-15T20:34:40.040Z,45.96
2023-08-15T20:37:06.766Z,45.46
2023-08-15T20:39:33.357Z,45.69
2023-08-15T20:42:00.346Z,45.70
2023-08-15T20:44:28.280Z,45.64
2023-08-15T20:46:56.123Z,45.79
2023-08-15T20:49:22.887Z,45.73
2023-08-15T20:51:49.476Z,45.75
2023-08-15T20:54:16.216Z,45.92
2023-08-15T20:56:43.292Z,45.96
2023-08-15T20:59:09.928Z,46.26
2023-08-15T21:01:36.509Z,46.05
2023-08-15T21:04:03.318Z,46.10
2023-08-15T21:06:30.001Z,46.03
2023-08-15T21:08:58.287Z,46.16
2023-08-15T21:11:24.900Z,45.97
2023-08-15T21:13:51.492Z,46.04
2023-08-15T21:16:18.204Z,46.22
2023-08-15T21:18:44.812Z,46.26
2023-08-15T21:21:11.441Z,46.13
2023-08-15T21:23:39.647Z,46.04
2023-08-15T21:26:06.230Z,46.22
2023-08-15T21:28:32.900Z,45.78
2023-08-15T21:30:59.535Z,45.82
2023-08-15T21:33:26.186Z,46.06
2023-08-15T21:35:52.804Z,45.49
2023-08-15T21:38:20.047Z,45.73
2023-08-15T21:40:47.545Z,46.19
2023-08-15T21:43:14.243Z,46.00
2023-08-15T21:45:41.138Z,45.96
2023-08-15T21:48:08.342Z,46.07
2023-08-15T21:50:35.821Z,45.99
2023-08-15T21:53:02.590Z,45.95
2023-08-15T21:55:29.206Z,46.12
2023-08-15T21:57:55.800Z,46.11
2023-08-15T22:00:22.443Z,45.91
2023-08-15T22:02:49.288Z,46.10
2023-08-15T22:05:16.050Z,45.72
2023-08-15T22:07:42.684Z,45.97
2023-08-15T22:10:09.504Z,46.11
2023-08-15T22:12:36.121Z,46.09
2023-08-15T22:15:02.809Z,45.73
2023-08-15T22:17:43.066Z,45.93
2023-08-15T22:20:13.048Z,45.73
2023-08-15T22:22:42.217Z,45.71
2023-08-15T22:25:09.237Z,46.11
2023-08-15T22:27:35.844Z,45.74
2023-08-15T22:30:02.858Z,45.67
2023-08-15T22:32:29.917Z,45.78
2023-08-15T22:34:58.133Z,45.80
2023-08-15T22:37:24.984Z,46.08
2023-08-15T22:39:51.858Z,46.26
2023-08-15T22:42:18.659Z,46.22
2023-08-15T22:44:45.247Z,45.97
2023-08-15T22:47:11.889Z,46.00
2023-08-15T22:49:38.647Z,45.77
2023-08-15T22:52:05.240Z,45.76
2023-08-15T22:54:32.992Z,46.13
2023-08-15T22:56:59.575Z,46.03
2023-08-15T22:59:26.364Z,45.77
2023-08-15T23:01:52.935Z,45.66
2023-08-15T23:04:19.583Z,45.76
2023-08-15T23:06:46.248Z,45.75
2023-08-15T23:09:13.778Z,46.11
2023-08-15T23:11:43.438Z,45.96
2023-08-15T23:14:10.019Z,45.94
2023-08-15T23:16:36.627Z,46.03
2023-08-15T23:19:03.205Z,46.09
2023-08-15T23:21:29.836Z,46.16
2023-08-15T23:23:57.517Z,46.27
2023-08-15T23:26:24.192Z,46.01
2023-08-15T23:28:50.796Z,45.76
2023-08-15T23:31:18.638Z,45.99
2023-08-15T23:33:46.394Z,45.95
2023-08-15T23:36:13.446Z,46.17
2023-08-15T23:38:40.151Z,45.91
2023-08-15T23:41:06.782Z,46.14
2023-08-15T23:43:33.348Z,46.02
2023-08-15T23:46:00.003Z,45.83
2023-08-15T23:48:26.586Z,45.91
2023-08-15T23:50:53.178Z,45.92
2023-08-15T23:53:19.767Z,46.04
2023-08-15T23:55:46.340Z,46.03
2023-08-15T23:58:12.969Z,45.87
